createdAt,value
2022-08-19T00:01:42.134Z,8.80
2022-08-19T00:04:26.871Z,9.85
2022-08-19T00:07:09.639Z,9.07
2022-08-19T00:09:52.456Z,10.30
2022-08-19T00:12:36.556Z,10.75
2022-08-19T00:15:26.666Z,7.93
2022-08-19T00:18:11.089Z,9.80
2022-08-19T00:20:53.921Z,9.13
2022-08-19T00:23:37.348Z,9.60
2022-08-19T00:26:20.372Z,10.50
2022-08-19T00:29:04.317Z,12.35
2022-08-19T00:31:47.650Z,14.93
2022-08-19T00:34:32.314Z,13.00
2022-08-19T00:37:15.228Z,12.30
2022-08-19T00:39:58.213Z,13.68
2022-08-19T00:42:40.987Z,13.50
2022-08-19T00:45:25.516Z,15.68
2022-08-19T00:48:14.675Z,13.32
2022-08-19T00:50:59.745Z,20.58
2022-08-19T00:53:43.210Z,15.88
2022-08-19T00:56:27.932Z,15.70
2022-08-19T00:59:10.984Z,22.02
2022-08-19T01:01:54.458Z,18.98
2022-08-19T01:04:37.237Z,16.90
2022-08-19T01:07:21.542Z,17.83
2022-08-19T01:10:05.638Z,20.73
2022-08-19T01:12:49.009Z,18.23
2022-08-19T01:15:33.443Z,18.10
2022-08-19T01:18:17.329Z,20.67
2022-08-19T01:21:01.507Z,19.50
2022-08-19T01:23:45.727Z,22.42
2022-08-19T01:26:28.528Z,15.82
2022-08-19T01:29:14.898Z,16.17
2022-08-19T01:31:57.747Z,15.80
2022-08-19T01:34:40.578Z,19.15
2022-08-19T01:37:27.113Z,16.20
2022-08-19T01:40:12.597Z,17.48
2022-08-19T01:42:58.450Z,17.13
2022-08-19T01:45:41.338Z,16.30
2022-08-19T01:48:24.795Z,21.33
2022-08-19T01:51:07.710Z,20.48
2022-08-19T01:53:51.029Z,19.13
2022-08-19T01:56:35.349Z,19.00
2022-08-19T01:59:19.443Z,18.27
2022-08-19T02:02:02.625Z,19.85
2022-08-19T02:04:46.808Z,18.38
2022-08-19T02:07:30.273Z,17.95
2022-08-19T02:10:16.648Z,16.88
2022-08-19T02:13:01.012Z,19.67
2022-08-19T02:15:43.800Z,15.50
2022-08-19T02:18:27.978Z,15.40
2022-08-19T02:21:17.753Z,15.82
2022-08-19T02:24:00.746Z,14.90
2022-08-19T02:26:43.399Z,13.95
2022-08-19T02:29:28.116Z,15.35
2022-08-19T02:32:11.895Z,14.98
2022-08-19T02:34:54.695Z,14.35
2022-08-19T02:37:54.996Z,15.02
2022-08-19T02:40:37.864Z,19.00
2022-08-19T02:43:22.025Z,16.15
2022-08-19T02:46:21.826Z,21.67
2022-08-19T02:49:05.983Z,19.52
2022-08-19T02:51:49.060Z,19.38
2022-08-19T02:54:31.903Z,25.45
2022-08-19T02:57:14.626Z,22.48
2022-08-19T02:59:57.504Z,17.48
2022-08-19T03:02:41.750Z,22.23
2022-08-19T03:05:28.381Z,20.92
2022-08-19T03:08:27.559Z,21.02
2022-08-19T03:11:19.882Z,20.70
2022-08-19T03:14:03.328Z,20.38
2022-08-19T03:16:48.509Z,17.88
2022-08-19T03:19:33.391Z,19.10
2022-08-19T03:22:16.186Z,18.35
2022-08-19T03:25:00.068Z,14.98
2022-08-19T03:27:42.795Z,13.77
2022-08-19T03:30:25.512Z,13.95
2022-08-19T03:33:09.247Z,11.93
2022-08-19T03:36:03.190Z,17.77
2022-08-19T03:38:47.296Z,11.93
2022-08-19T03:41:34.337Z,12.43
2022-08-19T03:44:27.944Z,13.88
2022-08-19T03:47:10.613Z,13.48
2022-08-19T03:49:53.405Z,15.13
2022-08-19T03:52:38.339Z,14.23
2022-08-19T03:55:21.168Z,12.68
2022-08-19T03:58:03.910Z,15.00
2022-08-19T04:00:46.612Z,14.48
2022-08-19T04:03:29.377Z,12.18
2022-08-19T04:06:19.162Z,15.23
2022-08-19T04:09:04.944Z,15.95
2022-08-19T04:11:49.209Z,16.63
2022-08-19T04:14:32.632Z,14.52
2022-08-19T04:17:15.524Z,17.08
2022-08-19T04:19:58.462Z,16.50
2022-08-19T04:22:43.395Z,18.33
2022-08-19T04:25:27.544Z,18.92
2022-08-19T04:28:11.018Z,18.10
2022-08-19T04:30:56.164Z,23.92
2022-08-19T04:33:38.901Z,21.60
2022-08-19T04:36:22.643Z,20.10
2022-08-19T04:39:07.696Z,19.50
2022-08-19T04:42:09.955Z,17.65
2022-08-19T04:44:52.693Z,20.10
2022-08-19T04:47:47.999Z,20.00
2022-08-19T04:50:42.599Z,18.92
2022-08-19T04:53:25.591Z,21.95
2022-08-19T04:56:20.383Z,19.67
2022-08-19T04:59:05.351Z,18.17
2022-08-19T05:01:51.043Z,18.75
2022-08-19T05:04:34.651Z,20.92
2022-08-19T05:07:17.559Z,18.85
2022-08-19T05:10:00.507Z,19.48
2022-08-19T05:12:43.407Z,16.08
2022-08-19T05:15:27.672Z,19.17
2022-08-19T05:18:27.791Z,14.82
2022-08-19T05:21:38.068Z,16.05
2022-08-19T05:24:21.986Z,19.42
2022-08-19T05:27:06.561Z,15.23
2022-08-19T05:29:49.560Z,17.55
2022-08-19T05:32:33.838Z,14.40
2022-08-19T05:35:16.574Z,13.57
2022-08-19T05:37:59.301Z,17.90
2022-08-19T05:40:42.437Z,16.50
2022-08-19T05:43:25.293Z,19.05
2022-08-19T05:46:08.134Z,21.52
2022-08-19T05:48:52.568Z,18.27
2022-08-19T05:51:38.528Z,19.45
2022-08-19T05:54:22.310Z,21.23
2022-08-19T05:57:07.589Z,17.20
2022-08-19T05:59:57.876Z,22.23
2022-08-19T06:02:41.802Z,20.48
2022-08-19T06:05:25.982Z,19.27
2022-08-19T06:08:08.897Z,20.52
2022-08-19T06:10:51.847Z,21.13
2022-08-19T06:13:34.541Z,18.13
2022-08-19T06:16:23.313Z,26.58
2022-08-19T06:19:08.250Z,20.63
2022-08-19T06:21:52.732Z,25.92
2022-08-19T06:24:36.468Z,19.48
2022-08-19T06:27:19.276Z,21.48
2022-08-19T06:30:02.230Z,21.00
2022-08-19T06:32:45.053Z,20.65
2022-08-19T06:35:30.466Z,23.48
2022-08-19T06:38:16.813Z,21.85
2022-08-19T06:41:02.159Z,19.75
2022-08-19T06:43:50.874Z,20.95
2022-08-19T06:46:37.417Z,18.25
2022-08-19T06:49:23.017Z,18.05
2022-08-19T06:52:06.548Z,22.40
2022-08-19T06:54:56.536Z,23.15
2022-08-19T06:57:39.899Z,19.05
2022-08-19T07:00:22.792Z,16.92
2022-08-19T07:03:08.727Z,18.80
2022-08-19T07:05:51.763Z,15.85
2022-08-19T07:08:35.088Z,19.67
2022-08-19T07:11:22.340Z,16.70
2022-08-19T07:14:07.559Z,18.65
2022-08-19T07:17:01.723Z,18.40
2022-08-19T07:19:46.791Z,18.85
2022-08-19T07:22:30.040Z,18.15
2022-08-19T07:25:14.298Z,19.00
2022-08-19T07:27:58.947Z,20.02
2022-08-19T07:30:44.711Z,17.77
2022-08-19T07:33:29.730Z,18.90
2022-08-19T07:36:22.961Z,18.50
2022-08-19T07:39:10.928Z,20.42
2022-08-19T07:41:54.221Z,22.67
2022-08-19T07:47:50.190Z,20.70
2022-08-19T07:51:09.472Z,17.75
2022-08-19T07:53:52.872Z,18.92
2022-08-19T07:56:35.714Z,17.77
2022-08-19T07:59:18.811Z,21.25
2022-08-19T08:02:04.902Z,18.65
2022-08-19T08:05:05.265Z,22.00
2022-08-19T08:08:05.406Z,18.33
2022-08-19T08:10:52.991Z,22.48
2022-08-19T08:13:39.002Z,20.60
2022-08-19T08:16:26.530Z,21.17
2022-08-19T08:19:20.720Z,19.70
2022-08-19T08:22:09.178Z,23.85
2022-08-19T08:24:51.898Z,15.43
2022-08-19T08:27:37.736Z,18.67
2022-08-19T08:30:21.919Z,19.40
2022-08-19T08:33:05.987Z,18.30
2022-08-19T08:35:50.412Z,21.52
2022-08-19T08:38:39.019Z,21.17
2022-08-19T08:41:28.969Z,20.05
2022-08-19T08:44:19.921Z,18.33
2022-08-19T08:47:04.401Z,20.35
2022-08-19T08:49:54.105Z,20.55
2022-08-19T08:52:49.393Z,19.08
2022-08-19T08:55:36.728Z,24.63
2022-08-19T08:58:28.533Z,19.17
2022-08-19T09:01:14.489Z,17.65
2022-08-19T09:03:57.314Z,19.15
2022-08-19T09:06:50.004Z,17.02
2022-08-19T09:09:36.141Z,22.00
2022-08-19T09:12:26.953Z,20.85
2022-08-19T09:15:11.203Z,19.77
2022-08-19T09:17:54.248Z,17.63
2022-08-19T09:20:37.715Z,24.20
2022-08-19T09:23:26.809Z,20.77
2022-08-19T09:26:20.988Z,17.08
2022-08-19T09:29:06.924Z,15.02
2022-08-19T09:31:51.359Z,18.48
2022-08-19T09:34:37.874Z,18.70
2022-08-19T09:37:20.874Z,23.17
2022-08-19T09:40:03.808Z,18.17
2022-08-19T09:42:50.133Z,20.42
2022-08-19T09:45:35.989Z,19.85
2022-08-19T09:48:23.702Z,17.77
2022-08-19T09:51:15.500Z,18.60
2022-08-19T09:54:02.021Z,20.77
2022-08-19T09:56:48.032Z,22.83
2022-08-19T09:59:32.357Z,17.13
2022-08-19T10:02:22.053Z,20.35
2022-08-19T10:05:26.962Z,16.75
2022-08-19T10:08:13.445Z,18.33
2022-08-19T10:10:57.190Z,17.63
2022-08-19T10:13:42.398Z,21.48
2022-08-19T10:16:30.362Z,17.92
2022-08-19T10:19:13.362Z,18.98
2022-08-19T10:22:00.231Z,17.73
2022-08-19T10:24:43.716Z,16.52
2022-08-19T10:27:26.764Z,15.63
2022-08-19T10:30:11.322Z,18.38
2022-08-19T10:32:57.592Z,16.27
2022-08-19T10:35:56.602Z,16.83
2022-08-19T10:38:40.174Z,15.98
2022-08-19T10:41:35.840Z,15.13
2022-08-19T10:44:19.074Z,16.10
2022-08-19T10:47:01.991Z,16.67
2022-08-19T10:50:04.959Z,20.30
2022-08-19T10:52:50.513Z,14.70
2022-08-19T10:55:53.314Z,14.88
2022-08-19T10:58:36.266Z,13.55
2022-08-19T11:01:19.148Z,12.30
2022-08-19T11:04:02.950Z,13.60
2022-08-19T11:06:48.411Z,12.95
2022-08-19T11:09:34.150Z,11.60
2022-08-19T11:12:17.938Z,15.00
2022-08-19T11:15:00.914Z,15.77
2022-08-19T11:17:44.808Z,14.05
2022-08-19T11:20:27.918Z,13.32
2022-08-19T11:23:12.701Z,15.05
2022-08-19T11:25:55.775Z,12.10
2022-08-19T11:28:39.598Z,13.25
2022-08-19T11:31:23.973Z,15.68
2022-08-19T11:34:13.830Z,16.17
2022-08-19T11:36:59.735Z,13.73
2022-08-19T11:39:43.977Z,16.10
2022-08-19T11:42:53.628Z,12.38
2022-08-19T11:45:36.353Z,14.50
2022-08-19T11:48:23.137Z,14.90
2022-08-19T11:51:13.650Z,12.43
2022-08-19T11:53:57.376Z,16.25
2022-08-19T11:56:41.599Z,15.40
2022-08-19T11:59:24.785Z,11.30
2022-08-19T12:02:07.692Z,13.18
2022-08-19T12:04:50.444Z,12.20
2022-08-19T12:07:34.155Z,11.85
2022-08-19T12:10:19.465Z,11.02
2022-08-19T12:13:04.971Z,11.82
2022-08-19T12:15:48.582Z,11.43
2022-08-19T12:18:31.627Z,13.95
2022-08-19T12:21:17.210Z,11.85
2022-08-19T12:24:00.855Z,11.43
2022-08-19T12:26:52.399Z,12.20
2022-08-19T12:29:38.161Z,14.45
2022-08-19T12:32:21.284Z,12.48
2022-08-19T12:35:04.231Z,11.82
2022-08-19T12:37:56.775Z,16.98
2022-08-19T12:40:41.146Z,14.68
2022-08-19T12:43:23.910Z,11.60
2022-08-19T12:46:18.292Z,13.75
2022-08-19T12:49:05.015Z,12.27
2022-08-19T12:51:59.297Z,12.23
2022-08-19T12:54:42.537Z,11.35
2022-08-19T12:57:32.875Z,11.52
2022-08-19T13:00:20.671Z,12.52
2022-08-19T13:03:07.365Z,12.13
2022-08-19T13:05:51.405Z,14.27
2022-08-19T13:08:34.315Z,13.60
2022-08-19T13:11:18.572Z,13.63
2022-08-19T13:14:01.547Z,12.10
2022-08-19T13:16:47.433Z,12.55
2022-08-19T13:19:32.602Z,14.02
2022-08-19T13:22:15.785Z,13.15
2022-08-19T13:24:58.721Z,12.23
2022-08-19T13:27:41.902Z,12.50
2022-08-19T13:30:42.820Z,10.65
2022-08-19T13:33:27.794Z,10.18
2022-08-19T13:36:19.406Z,11.25
2022-08-19T13:39:02.295Z,11.82
2022-08-19T13:41:48.799Z,13.82
2022-08-19T13:44:31.605Z,10.43
2022-08-19T13:47:15.658Z,15.02
2022-08-19T13:49:58.488Z,11.52
2022-08-19T13:52:42.895Z,11.27
2022-08-19T13:55:26.057Z,11.10
2022-08-19T13:58:08.823Z,12.07
2022-08-19T14:00:51.678Z,10.30
2022-08-19T14:03:35.134Z,11.05
2022-08-19T14:06:19.473Z,12.23
2022-08-19T14:09:04.137Z,9.40
2022-08-19T14:11:47.693Z,8.30
2022-08-19T14:14:31.111Z,10.15
2022-08-19T14:17:17.140Z,8.30
2022-08-19T14:20:03.444Z,11.55
2022-08-19T14:22:53.908Z,10.27
2022-08-19T14:25:38.734Z,9.02
2022-08-19T14:28:21.545Z,7.93
2022-08-19T14:31:17.617Z,7.47
2022-08-19T14:34:00.459Z,10.60
2022-08-19T14:36:43.272Z,11.48
2022-08-19T14:39:27.669Z,8.55
2022-08-19T14:42:12.574Z,8.07
2022-08-19T14:44:55.533Z,11.57
2022-08-19T14:47:39.781Z,7.95
2022-08-19T14:50:23.884Z,10.95
2022-08-19T14:53:11.952Z,10.73
2022-08-19T14:55:55.786Z,10.50
2022-08-19T14:58:43.463Z,8.73
2022-08-19T15:01:27.398Z,9.27
2022-08-19T15:04:11.300Z,7.32
2022-08-19T15:06:54.324Z,9.98
2022-08-19T15:09:37.154Z,8.93
2022-08-19T15:12:22.173Z,8.48
2022-08-19T15:15:07.080Z,10.50
2022-08-19T15:17:52.496Z,9.10
2022-08-19T15:20:37.009Z,12.43
2022-08-19T15:23:20.752Z,11.15
2022-08-19T15:26:05.000Z,9.70
2022-08-19T15:28:48.452Z,9.60
2022-08-19T15:31:38.903Z,12.35
2022-08-19T15:34:21.856Z,10.88
2022-08-19T15:37:06.408Z,15.75
2022-08-19T15:39:50.747Z,8.35
2022-08-19T15:42:41.465Z,14.57
2022-08-19T15:45:32.960Z,11.38
2022-08-19T15:48:18.276Z,9.82
2022-08-19T15:51:01.220Z,11.40
2022-08-19T15:53:44.121Z,9.40
2022-08-19T15:56:27.621Z,8.90
2022-08-19T15:59:32.878Z,9.25
2022-08-19T16:02:42.521Z,13.38
2022-08-19T16:05:48.078Z,9.50
2022-08-19T16:08:31.375Z,14.00
2022-08-19T16:11:20.993Z,10.07
2022-08-19T16:14:04.096Z,9.82
2022-08-19T16:16:47.746Z,7.55
2022-08-19T16:19:32.519Z,10.10
2022-08-19T16:22:16.938Z,7.93
2022-08-19T16:25:00.515Z,8.93
2022-08-19T16:27:50.794Z,7.40
2022-08-19T16:30:48.755Z,8.05
2022-08-19T16:33:33.962Z,8.45
2022-08-19T16:36:16.789Z,8.52
2022-08-19T16:39:02.402Z,10.40
2022-08-19T16:41:46.219Z,8.40
2022-08-19T16:44:29.870Z,8.52
2022-08-19T16:47:13.373Z,12.02
2022-08-19T16:49:56.562Z,8.25
2022-08-19T16:52:39.548Z,9.50
2022-08-19T16:55:23.853Z,8.93
2022-08-19T16:58:06.909Z,10.38
2022-08-19T17:00:50.578Z,8.75
2022-08-19T17:03:36.043Z,8.23
2022-08-19T17:06:21.155Z,8.27
2022-08-19T17:09:06.079Z,8.77
2022-08-19T17:11:50.196Z,8.85
2022-08-19T17:14:33.324Z,8.10
2022-08-19T17:17:16.486Z,10.57
2022-08-19T17:20:00.448Z,7.93
2022-08-19T17:22:43.244Z,10.40
2022-08-19T17:25:26.497Z,8.52
2022-08-19T17:28:13.995Z,8.05
2022-08-19T17:30:57.284Z,10.93
2022-08-19T17:33:41.355Z,11.48
2022-08-19T17:36:26.317Z,8.98
2022-08-19T17:39:09.135Z,10.23
2022-08-19T17:41:54.203Z,9.52
2022-08-19T17:44:40.912Z,9.90
2022-08-19T17:47:24.045Z,9.73
2022-08-19T17:50:07.569Z,11.80
2022-08-19T17:52:52.457Z,11.18
2022-08-19T17:55:36.401Z,9.60
2022-08-19T17:58:20.536Z,9.27
2022-08-19T18:01:14.037Z,8.35
2022-08-19T18:03:56.912Z,10.38
2022-08-19T18:06:41.613Z,8.60
2022-08-19T18:09:41.983Z,9.90
2022-08-19T18:12:26.511Z,9.05
2022-08-19T18:15:10.097Z,9.02
2022-08-19T18:17:55.406Z,13.18
2022-08-19T18:20:38.529Z,11.13
2022-08-19T18:23:43.804Z,8.38
2022-08-19T18:26:24.523Z,10.07
2022-08-19T18:29:07.839Z,9.05
2022-08-19T18:31:50.864Z,9.90
2022-08-19T18:34:36.972Z,11.70
2022-08-19T18:37:20.042Z,9.73
2022-08-19T18:40:20.493Z,9.88
2022-08-19T18:43:17.380Z,9.80
2022-08-19T18:46:17.620Z,9.80
2022-08-19T18:49:06.221Z,7.97
2022-08-19T18:51:51.185Z,12.50
2022-08-19T18:54:34.477Z,10.02
2022-08-19T18:57:18.502Z,10.88
2022-08-19T19:00:02.977Z,8.45
2022-08-19T19:02:46.495Z,11.15
2022-08-19T19:05:29.305Z,8.93
2022-08-19T19:08:13.678Z,9.15
2022-08-19T19:10:58.982Z,10.18
2022-08-19T19:13:46.794Z,7.50
2022-08-19T19:16:30.406Z,11.00
2022-08-19T19:19:14.475Z,10.60
2022-08-19T19:22:03.615Z,10.30
2022-08-19T19:24:47.808Z,8.43
2022-08-19T19:27:31.192Z,11.00
2022-08-19T19:30:15.234Z,9.93
2022-08-19T19:32:59.223Z,10.20
2022-08-19T19:35:45.819Z,9.65
2022-08-19T19:38:30.163Z,10.18
2022-08-19T19:41:23.376Z,8.90
2022-08-19T19:44:32.585Z,9.90
2022-08-19T19:47:12.701Z,10.38
2022-08-19T19:50:15.187Z,10.10
2022-08-19T19:52:58.920Z,10.25
2022-08-19T19:55:42.166Z,10.35
2022-08-19T19:58:29.146Z,10.45
2022-08-19T20:01:19.571Z,11.20
2022-08-19T20:04:05.977Z,10.07
2022-08-19T20:06:48.702Z,9.30
2022-08-19T20:09:49.715Z,9.18
2022-08-19T20:12:34.163Z,10.15
2022-08-19T20:15:18.415Z,8.85
2022-08-19T20:18:02.359Z,9.80
2022-08-19T20:20:46.449Z,9.10
2022-08-19T20:23:29.214Z,8.68
2022-08-19T20:26:32.148Z,8.45
2022-08-19T20:29:38.373Z,10.73
2022-08-19T20:32:21.211Z,10.18
2022-08-19T20:35:06.159Z,10.40
2022-08-19T20:37:48.993Z,11.50
2022-08-19T20:40:32.300Z,11.23
2022-08-19T20:43:15.367Z,10.52
2022-08-19T20:45:58.188Z,11.02
2022-08-19T20:48:42.852Z,12.93
2022-08-19T20:51:25.783Z,14.48
2022-08-19T20:54:08.593Z,12.77
2022-08-19T20:56:51.765Z,11.07
2022-08-19T20:59:34.630Z,10.25
2022-08-19T21:02:18.509Z,12.80
2022-08-19T21:05:02.947Z,9.63
2022-08-19T21:07:46.331Z,9.18
2022-08-19T21:10:29.289Z,8.02
2022-08-19T21:13:12.312Z,11.95
2022-08-19T21:15:55.192Z,8.07
2022-08-19T21:18:38.017Z,11.90
2022-08-19T21:21:35.072Z,11.55
2022-08-19T21:24:17.885Z,10.05
2022-08-19T21:27:00.760Z,9.05
2022-08-19T21:29:43.535Z,9.77
2022-08-19T21:32:26.243Z,9.38
2022-08-19T21:35:09.329Z,10.05
2022-08-19T21:37:53.667Z,11.30
2022-08-19T21:40:36.481Z,10.75
2022-08-19T21:43:19.295Z,9.40
2022-08-19T21:46:02.057Z,11.65
2022-08-19T21:48:45.130Z,11.45
2022-08-19T21:51:28.005Z,11.75
2022-08-19T21:54:13.977Z,12.65
2022-08-19T21:56:57.141Z,11.15
2022-08-19T21:59:43.846Z,10.82
2022-08-19T22:02:28.312Z,11.05
2022-08-19T22:05:11.211Z,11.25
2022-08-19T22:07:54.917Z,11.55
2022-08-19T22:10:42.236Z,10.70
2022-08-19T22:13:24.963Z,10.52
2022-08-19T22:16:07.838Z,10.85
2022-08-19T22:18:51.611Z,10.27
2022-08-19T22:21:40.360Z,10.18
2022-08-19T22:24:23.834Z,12.15
2022-08-19T22:27:08.635Z,8.93
2022-08-19T22:29:52.514Z,10.02
2022-08-19T22:32:36.496Z,8.25
2022-08-19T22:35:20.379Z,9.95
2022-08-19T22:38:03.530Z,7.90
2022-08-19T22:40:47.649Z,8.60
2022-08-19T22:43:34.009Z,7.95
2022-08-19T22:46:33.819Z,7.05
2022-08-19T22:49:16.682Z,7.05
2022-08-19T22:52:18.432Z,10.30
2022-08-19T22:55:02.205Z,8.23
2022-08-19T22:57:44.970Z,8.63
2022-08-19T23:00:29.658Z,7.85
2022-08-19T23:03:12.935Z,8.05
2022-08-19T23:05:56.519Z,9.15
2022-08-19T23:08:39.749Z,9.55
2022-08-19T23:11:41.909Z,10.00
2022-08-19T23:14:24.988Z,9.38
2022-08-19T23:17:09.651Z,10.48
2022-08-19T23:19:53.241Z,10.77
2022-08-19T23:22:38.113Z,10.80
2022-08-19T23:25:22.062Z,9.52
2022-08-19T23:28:22.885Z,11.40
2022-08-19T23:31:05.922Z,10.70
2022-08-19T23:33:51.593Z,9.45
2022-08-19T23:36:39.032Z,7.97
2022-08-19T23:39:21.828Z,8.20
2022-08-19T23:42:04.947Z,9.50
2022-08-19T23:44:51.214Z,11.88
2022-08-19T23:47:35.505Z,10.68
2022-08-19T23:50:19.739Z,8.82
2022-08-19T23:53:03.111Z,8.55
2022-08-19T23:55:46.616Z,8.27
2022-08-19T23:58:30.436Z,8.10
